createdAt,value
2018-12-18T00:01:06.135Z,80.30
2018-12-18T00:03:39.297Z,79.95
2018-12-18T00:06:06.351Z,79.78
2018-12-18T00:08:35.707Z,79.94
2018-12-18T00:11:04.471Z,80.01
2018-12-18T00:13:33.566Z,79.95
2018-12-18T00:16:03.133Z,79.72
2018-12-18T00:18:32.399Z,79.77
2018-12-18T00:21:01.533Z,79.26
2018-12-18T00:23:30.701Z,79.18
2018-12-18T00:25:59.738Z,78.86
2018-12-18T00:28:28.934Z,78.74
2018-12-18T00:30:58.235Z,78.57
2018-12-18T00:33:27.257Z,78.83
2018-12-18T00:35:56.523Z,78.75
2018-12-18T00:38:25.904Z,78.37
2018-12-18T00:40:55.214Z,78.57
2018-12-18T00:43:24.259Z,78.48
2018-12-18T00:45:53.462Z,78.28
2018-12-18T00:48:22.558Z,78.20
2018-12-18T00:50:51.514Z,78.17
2018-12-18T00:53:20.386Z,78.07
2018-12-18T00:55:49.377Z,78.06
2018-12-18T00:58:18.629Z,77.90
2018-12-18T01:00:47.633Z,78.05
2018-12-18T01:03:17.135Z,77.93
2018-12-18T01:05:46.276Z,78.06
2018-12-18T01:08:15.464Z,78.14
2018-12-18T01:10:44.843Z,78.21
2018-12-18T01:13:14.195Z,78.12
2018-12-18T01:15:43.155Z,77.88
2018-12-18T01:18:12.438Z,77.93
2018-12-18T01:20:41.876Z,78.17
2018-12-18T01:23:10.937Z,78.05
2018-12-18T01:25:40.218Z,78.11
2018-12-18T01:28:09.227Z,78.23
2018-12-18T01:30:38.494Z,78.03
2018-12-18T01:33:07.663Z,78.04
2018-12-18T01:35:36.981Z,78.30
2018-12-18T01:38:06.146Z,78.14
2018-12-18T01:40:35.415Z,78.04
2018-12-18T01:43:04.580Z,77.97
2018-12-18T01:45:33.649Z,77.89
2018-12-18T01:48:02.815Z,78.02
2018-12-18T01:50:31.729Z,78.02
2018-12-18T01:53:01.141Z,77.60
2018-12-18T01:55:30.490Z,77.66
2018-12-18T01:57:59.396Z,77.31
2018-12-18T02:00:28.362Z,77.39
2018-12-18T02:02:58.015Z,77.58
2018-12-18T02:05:27.113Z,77.39
2018-12-18T02:07:56.457Z,77.31
2018-12-18T02:10:25.823Z,77.24
2018-12-18T02:12:54.710Z,77.02
2018-12-18T02:15:23.831Z,77.02
2018-12-18T02:17:52.952Z,77.11
2018-12-18T02:20:22.179Z,77.19
2018-12-18T02:22:51.504Z,77.41
2018-12-18T02:25:21.230Z,77.10
2018-12-18T02:27:50.391Z,77.02
2018-12-18T02:30:19.480Z,77.17
2018-12-18T02:32:48.804Z,77.04
2018-12-18T02:35:17.795Z,76.74
2018-12-18T02:37:47.126Z,77.05
2018-12-18T02:40:16.371Z,77.00
2018-12-18T02:42:45.490Z,76.72
2018-12-18T02:45:14.751Z,76.96
2018-12-18T02:47:44.054Z,77.00
2018-12-18T02:50:12.846Z,77.02
2018-12-18T02:52:42.274Z,76.86
2018-12-18T02:55:11.746Z,76.90
2018-12-18T02:57:40.760Z,77.03
2018-12-18T03:00:10.009Z,76.80
2018-12-18T03:02:39.311Z,76.81
2018-12-18T03:05:08.561Z,76.91
2018-12-18T03:07:37.707Z,76.58
2018-12-18T03:10:07.131Z,76.65
2018-12-18T03:12:36.312Z,76.49
2018-12-18T03:15:06.211Z,76.47
2018-12-18T03:17:35.333Z,76.54
2018-12-18T03:20:04.553Z,76.28
2018-12-18T03:22:33.535Z,76.32
2018-12-18T03:25:03.305Z,76.16
2018-12-18T03:27:32.869Z,76.18
2018-12-18T03:30:01.894Z,76.10
2018-12-18T03:32:36.261Z,76.30
2018-12-18T03:35:06.275Z,76.11
2018-12-18T03:37:35.440Z,76.09
2018-12-18T03:40:05.903Z,76.34
2018-12-18T03:42:35.159Z,76.48
2018-12-18T03:45:06.553Z,76.05
2018-12-18T03:47:36.075Z,76.05
2018-12-18T03:50:05.551Z,75.93
2018-12-18T03:52:34.578Z,75.98
2018-12-18T03:55:04.511Z,76.23
2018-12-18T03:57:33.533Z,76.30
2018-12-18T04:00:02.610Z,76.23
2018-12-18T04:02:31.725Z,76.13
2018-12-18T04:05:00.759Z,76.11
2018-12-18T04:07:29.940Z,76.29
2018-12-18T04:09:59.350Z,76.12
2018-12-18T04:12:28.480Z,75.95
2018-12-18T04:15:03.010Z,75.79
2018-12-18T04:17:32.089Z,76.01
2018-12-18T04:20:01.036Z,75.99
2018-12-18T04:22:30.306Z,75.79
2018-12-18T04:24:59.598Z,75.63
2018-12-18T04:27:28.943Z,75.77
2018-12-18T04:29:58.103Z,75.79
2018-12-18T04:32:27.391Z,75.79
2018-12-18T04:34:56.557Z,75.67
2018-12-18T04:37:25.838Z,75.54
2018-12-18T04:39:54.809Z,75.82
2018-12-18T04:42:23.715Z,75.74
2018-12-18T04:44:52.938Z,75.87
2018-12-18T04:47:22.380Z,76.11
2018-12-18T04:49:51.357Z,76.22
2018-12-18T04:52:20.612Z,76.13
2018-12-18T04:54:49.461Z,76.19
2018-12-18T04:57:18.813Z,76.02
2018-12-18T04:59:47.956Z,76.08
2018-12-18T05:02:17.119Z,75.99
2018-12-18T05:04:50.259Z,75.62
2018-12-18T05:07:17.781Z,75.78
2018-12-18T05:09:46.792Z,75.96
2018-12-18T05:12:15.771Z,75.73
2018-12-18T05:14:45.136Z,75.66
2018-12-18T05:17:14.270Z,75.46
2018-12-18T05:19:43.283Z,75.16
2018-12-18T05:22:12.456Z,74.94
2018-12-18T05:24:41.363Z,75.23
2018-12-18T05:27:10.860Z,75.21
2018-12-18T05:29:40.258Z,75.44
2018-12-18T05:32:09.271Z,75.11
2018-12-18T05:34:38.472Z,75.03
2018-12-18T05:37:07.774Z,75.12
2018-12-18T05:39:36.694Z,74.74
2018-12-18T05:42:05.555Z,74.87
2018-12-18T05:44:35.423Z,74.88
2018-12-18T05:47:05.127Z,74.53
2018-12-18T05:49:34.242Z,74.73
2018-12-18T05:52:03.414Z,74.42
2018-12-18T05:54:32.278Z,74.54
2018-12-18T05:57:01.553Z,74.50
2018-12-18T05:59:30.946Z,74.63
2018-12-18T06:02:00.045Z,74.75
2018-12-18T06:04:29.148Z,74.78
2018-12-18T06:06:58.394Z,74.82
2018-12-18T06:09:27.492Z,74.62
2018-12-18T06:11:56.668Z,74.65
2018-12-18T06:14:25.938Z,74.74
2018-12-18T06:16:54.929Z,74.83
2018-12-18T06:19:23.866Z,74.59
2018-12-18T06:21:52.983Z,74.95
2018-12-18T06:24:22.130Z,74.55
2018-12-18T06:26:50.993Z,74.50
2018-12-18T06:29:20.020Z,74.49
2018-12-18T06:31:48.828Z,74.24
2018-12-18T06:34:17.775Z,74.38
2018-12-18T06:36:46.875Z,74.62
2018-12-18T06:39:15.813Z,74.38
2018-12-18T06:41:44.886Z,74.16
2018-12-18T06:44:14.131Z,73.89
2018-12-18T06:46:43.003Z,73.79
2018-12-18T06:49:11.963Z,73.85
2018-12-18T06:51:41.011Z,73.94
2018-12-18T06:54:09.922Z,73.85
2018-12-18T06:56:38.839Z,73.78
2018-12-18T06:59:07.793Z,73.80
2018-12-18T07:01:36.802Z,74.43
2018-12-18T07:04:06.087Z,74.11
2018-12-18T07:06:35.152Z,74.53
2018-12-18T07:09:05.553Z,74.62
2018-12-18T07:11:34.336Z,74.23
2018-12-18T07:14:04.441Z,74.14
2018-12-18T07:16:33.620Z,74.07
2018-12-18T07:19:02.946Z,73.78
2018-12-18T07:21:31.967Z,73.76
2018-12-18T07:24:00.821Z,73.72
2018-12-18T07:26:29.728Z,73.75
2018-12-18T07:28:58.962Z,73.76
2018-12-18T07:31:27.986Z,73.57
2018-12-18T07:33:56.839Z,73.72
2018-12-18T07:36:25.697Z,73.89
2018-12-18T07:38:54.809Z,74.04
2018-12-18T07:41:23.656Z,74.05
2018-12-18T07:43:53.475Z,73.87
2018-12-18T07:46:22.801Z,73.83
2018-12-18T07:48:51.621Z,73.92
2018-12-18T07:51:20.893Z,73.69
2018-12-18T07:53:49.786Z,73.38
2018-12-18T07:56:18.578Z,73.33
2018-12-18T07:58:47.465Z,73.26
2018-12-18T08:01:16.607Z,72.88
2018-12-18T08:03:45.528Z,72.86
2018-12-18T08:06:14.357Z,73.18
2018-12-18T08:08:43.550Z,73.27
2018-12-18T08:11:12.474Z,73.44
2018-12-18T08:13:41.559Z,73.29
2018-12-18T08:16:10.688Z,73.09
2018-12-18T08:18:39.779Z,73.10
2018-12-18T08:21:08.974Z,73.09
2018-12-18T08:23:38.061Z,73.46
2018-12-18T08:26:06.984Z,73.30
2018-12-18T08:28:35.771Z,73.13
2018-12-18T08:31:04.891Z,73.12
2018-12-18T08:33:33.733Z,73.04
2018-12-18T08:36:02.628Z,73.04
2018-12-18T08:38:31.786Z,72.91
2018-12-18T08:41:00.573Z,73.01
2018-12-18T08:43:29.716Z,72.72
2018-12-18T08:45:58.792Z,72.68
2018-12-18T08:48:27.548Z,72.58
2018-12-18T08:50:56.448Z,72.67
2018-12-18T08:53:25.488Z,72.64
2018-12-18T08:55:54.708Z,72.51
2018-12-18T08:58:23.677Z,72.71
2018-12-18T09:00:52.728Z,72.28
2018-12-18T09:03:22.120Z,72.22
2018-12-18T09:05:51.149Z,72.23
2018-12-18T09:08:20.106Z,72.29
2018-12-18T09:10:48.867Z,72.43
2018-12-18T09:13:17.781Z,72.21
2018-12-18T09:15:52.184Z,72.34
2018-12-18T09:18:21.027Z,72.31
2018-12-18T09:20:49.824Z,71.94
2018-12-18T09:23:19.318Z,72.00
2018-12-18T09:25:48.216Z,72.02
2018-12-18T09:28:17.056Z,72.04
2018-12-18T09:30:46.396Z,72.19
2018-12-18T09:33:15.358Z,72.15
2018-12-18T09:35:49.705Z,72.19
2018-12-18T09:38:20.422Z,72.27
2018-12-18T09:40:54.595Z,72.18
2018-12-18T09:43:29.738Z,72.31
2018-12-18T09:45:58.579Z,72.24
2018-12-18T09:48:28.130Z,72.14
2018-12-18T09:50:57.147Z,72.26
2018-12-18T09:53:26.223Z,71.77
2018-12-18T09:55:55.194Z,71.96
2018-12-18T09:58:24.608Z,72.08
2018-12-18T10:00:53.484Z,72.24
2018-12-18T10:03:22.884Z,72.29
2018-12-18T10:05:56.350Z,72.20
2018-12-18T10:08:23.463Z,72.17
2018-12-18T10:10:52.746Z,72.36
2018-12-18T10:13:22.037Z,72.41
2018-12-18T10:15:51.128Z,72.22
2018-12-18T10:18:20.264Z,72.26
2018-12-18T10:20:49.237Z,72.42
2018-12-18T10:23:18.348Z,72.21
2018-12-18T10:25:48.094Z,72.41
2018-12-18T10:28:17.067Z,72.17
2018-12-18T10:30:46.057Z,72.19
2018-12-18T10:33:15.129Z,72.25
2018-12-18T10:35:44.107Z,72.29
2018-12-18T10:38:12.972Z,72.42
2018-12-18T10:40:42.056Z,72.21
2018-12-18T10:43:11.254Z,72.01
2018-12-18T10:45:40.088Z,71.80
2018-12-18T10:48:08.896Z,71.83
2018-12-18T10:50:38.167Z,72.06
2018-12-18T10:53:07.072Z,72.19
2018-12-18T10:55:35.864Z,72.29
2018-12-18T10:58:04.978Z,72.19
2018-12-18T11:00:39.021Z,72.25
2018-12-18T11:03:08.284Z,72.66
2018-12-18T11:05:37.070Z,72.57
2018-12-18T11:08:05.990Z,72.63
2018-12-18T11:10:35.081Z,72.42
2018-12-18T11:13:09.127Z,72.71
2018-12-18T11:15:38.206Z,72.87
2018-12-18T11:18:07.216Z,73.11
2018-12-18T11:20:36.490Z,72.94
2018-12-18T11:23:05.736Z,72.82
2018-12-18T11:25:34.705Z,73.07
2018-12-18T11:28:03.611Z,73.26
2018-12-18T11:30:32.818Z,73.15
2018-12-18T11:33:01.704Z,73.25
2018-12-18T11:35:30.647Z,73.17
2018-12-18T11:37:59.994Z,73.33
2018-12-18T11:40:28.882Z,73.34
2018-12-18T11:42:57.988Z,73.17
2018-12-18T11:45:27.387Z,73.29
2018-12-18T11:47:56.204Z,73.08
2018-12-18T11:50:25.098Z,73.12
2018-12-18T11:52:54.372Z,72.83
2018-12-18T11:55:23.887Z,72.83
2018-12-18T11:57:52.754Z,72.75
2018-12-18T12:00:23.101Z,73.03
2018-12-18T12:02:52.031Z,72.99
2018-12-18T12:05:20.946Z,73.20
2018-12-18T12:07:50.083Z,73.11
2018-12-18T12:10:19.024Z,73.02
2018-12-18T12:12:47.873Z,73.16
2018-12-18T12:15:17.091Z,73.06
2018-12-18T12:17:46.230Z,73.02
2018-12-18T12:20:15.181Z,72.99
2018-12-18T12:22:44.423Z,73.01
2018-12-18T12:25:13.229Z,73.01
2018-12-18T12:27:47.339Z,72.83
2018-12-18T12:30:16.327Z,72.84
2018-12-18T12:32:45.314Z,72.94
2018-12-18T12:35:14.666Z,72.94
2018-12-18T12:37:43.480Z,73.03
2018-12-18T12:40:12.553Z,72.80
2018-12-18T12:42:41.546Z,73.01
2018-12-18T12:45:10.450Z,73.20
2018-12-18T12:47:39.273Z,73.13
2018-12-18T12:50:09.292Z,73.21
2018-12-18T12:52:38.120Z,73.36
2018-12-18T12:55:07.024Z,73.13
2018-12-18T13:00:28.795Z,72.90
2018-12-18T13:02:57.747Z,72.79
2018-12-18T13:05:26.652Z,73.20
2018-12-18T13:07:56.303Z,73.25
2018-12-18T13:13:18.195Z,73.47
2018-12-18T13:15:47.104Z,73.49
2018-12-18T13:18:16.101Z,73.69
2018-12-18T13:20:45.070Z,73.75
2018-12-18T13:23:13.954Z,73.74
2018-12-18T13:25:42.705Z,74.04
2018-12-18T13:28:11.929Z,74.02
2018-12-18T13:30:40.824Z,73.95
2018-12-18T13:33:09.779Z,74.01
2018-12-18T13:35:39.000Z,74.30
2018-12-18T13:38:08.289Z,74.03
2018-12-18T13:40:37.242Z,74.05
2018-12-18T13:43:06.105Z,74.01
2018-12-18T13:45:35.145Z,74.26
2018-12-18T13:48:04.469Z,74.22
2018-12-18T13:50:33.502Z,74.34
2018-12-18T13:53:02.657Z,74.46
2018-12-18T13:55:36.631Z,74.28
2018-12-18T13:58:02.832Z,74.29
2018-12-18T14:00:31.911Z,74.29
2018-12-18T14:03:00.878Z,74.30
2018-12-18T14:05:29.960Z,74.20
2018-12-18T14:07:59.206Z,74.26
2018-12-18T14:10:28.182Z,74.51
2018-12-18T14:12:57.276Z,74.64
2018-12-18T14:15:27.166Z,74.65
2018-12-18T14:17:56.326Z,74.54
2018-12-18T14:20:25.485Z,74.80
2018-12-18T14:22:54.558Z,75.05
2018-12-18T14:25:24.293Z,74.59
2018-12-18T14:27:53.184Z,74.64
2018-12-18T14:30:22.221Z,74.53
2018-12-18T14:32:51.063Z,74.62
2018-12-18T14:35:51.301Z,74.81
2018-12-18T14:38:20.169Z,74.78
2018-12-18T14:40:49.314Z,74.91
2018-12-18T14:43:19.041Z,74.97
2018-12-18T14:45:48.164Z,74.95
2018-12-18T14:48:16.990Z,75.05
2018-12-18T14:50:46.165Z,75.18
2018-12-18T14:53:15.451Z,75.41
2018-12-18T14:55:50.975Z,75.77
2018-12-18T14:58:19.884Z,75.48
2018-12-18T15:00:48.893Z,75.65
2018-12-18T15:03:18.372Z,75.56
2018-12-18T15:05:47.361Z,75.36
2018-12-18T15:08:16.461Z,75.71
2018-12-18T15:10:45.996Z,75.49
2018-12-18T15:13:14.871Z,75.71
2018-12-18T15:15:43.870Z,75.52
2018-12-18T15:18:12.858Z,75.47
2018-12-18T15:20:41.709Z,75.75
2018-12-18T15:23:10.552Z,76.12
2018-12-18T15:25:39.743Z,76.09
2018-12-18T15:28:08.832Z,76.01
2018-12-18T15:30:37.630Z,76.39
2018-12-18T15:33:06.693Z,76.61
2018-12-18T15:35:35.882Z,76.43
2018-12-18T15:38:04.814Z,76.51
2018-12-18T15:40:34.136Z,76.37
2018-12-18T15:43:03.947Z,76.30
2018-12-18T15:45:32.920Z,76.62
2018-12-18T15:48:02.031Z,76.93
2018-12-18T15:50:31.054Z,76.77
2018-12-18T15:52:59.824Z,77.13
2018-12-18T15:55:28.765Z,77.14
2018-12-18T15:57:57.645Z,77.03
2018-12-18T16:00:26.445Z,76.98
2018-12-18T16:02:55.571Z,77.46
2018-12-18T16:05:24.550Z,77.74
2018-12-18T16:07:53.405Z,77.73
2018-12-18T16:10:22.464Z,77.71
2018-12-18T16:12:51.382Z,77.89
2018-12-18T16:15:20.393Z,77.84
2018-12-18T16:17:49.340Z,77.71
2018-12-18T16:20:18.223Z,77.68
2018-12-18T16:22:47.111Z,78.00
2018-12-18T16:25:16.236Z,78.23
2018-12-18T16:27:45.287Z,77.97
2018-12-18T16:30:14.246Z,78.26
2018-12-18T16:32:43.275Z,78.21
2018-12-18T16:35:12.184Z,78.11
2018-12-18T16:37:40.989Z,77.98
2018-12-18T16:40:10.143Z,78.29
2018-12-18T16:42:39.493Z,78.32
2018-12-18T16:45:08.509Z,78.30
2018-12-18T16:47:37.674Z,78.09
2018-12-18T16:50:06.695Z,78.51
2018-12-18T16:52:35.693Z,78.59
2018-12-18T16:55:05.934Z,78.78
2018-12-18T16:57:34.881Z,78.87
2018-12-18T17:00:03.989Z,78.84
2018-12-18T17:02:33.386Z,78.87
2018-12-18T17:05:02.472Z,79.51
2018-12-18T17:07:31.450Z,79.52
2018-12-18T17:10:00.381Z,79.62
2018-12-18T17:12:29.393Z,79.81
2018-12-18T17:16:01.698Z,79.88
2018-12-18T17:18:30.675Z,80.20
2018-12-18T17:20:59.551Z,80.03
2018-12-18T17:23:28.742Z,79.92
2018-12-18T17:25:57.679Z,79.68
2018-12-18T17:28:26.527Z,80.04
2018-12-18T17:30:55.632Z,80.06
2018-12-18T17:33:24.560Z,80.19
2018-12-18T17:35:53.388Z,79.89
2018-12-18T17:38:23.728Z,80.29
2018-12-18T17:40:53.115Z,79.91
2018-12-18T17:43:22.434Z,80.34
2018-12-18T17:45:51.447Z,80.40
2018-12-18T17:48:20.298Z,80.33
2018-12-18T17:50:49.653Z,80.25
2018-12-18T17:53:18.733Z,80.55
2018-12-18T17:55:47.725Z,80.41
2018-12-18T17:58:16.954Z,80.46
2018-12-18T18:00:46.314Z,80.30
2018-12-18T18:03:15.443Z,80.04
2018-12-18T18:05:44.770Z,80.10
2018-12-18T18:08:14.296Z,80.30
2018-12-18T18:10:43.391Z,80.48
2018-12-18T18:13:12.583Z,80.60
2018-12-18T18:15:41.814Z,80.32
2018-12-18T18:18:10.816Z,80.33
2018-12-18T18:20:39.679Z,80.38
2018-12-18T18:23:09.315Z,80.35
2018-12-18T18:25:38.105Z,80.42
2018-12-18T18:28:07.242Z,80.52
2018-12-18T18:30:36.476Z,80.21
2018-12-18T18:33:06.167Z,80.42
2018-12-18T18:35:35.018Z,80.44
2018-12-18T18:38:04.237Z,80.71
2018-12-18T18:40:33.719Z,80.46
2018-12-18T18:43:02.938Z,80.53
2018-12-18T18:45:32.107Z,80.72
2018-12-18T18:48:00.966Z,80.68
2018-12-18T18:50:30.212Z,80.84
2018-12-18T18:52:59.593Z,80.74
2018-12-18T18:55:28.542Z,80.95
2018-12-18T18:57:57.418Z,80.79
2018-12-18T19:00:26.412Z,80.68
2018-12-18T19:02:55.263Z,80.82
2018-12-18T19:05:24.198Z,81.11
2018-12-18T19:07:56.433Z,81.15
2018-12-18T19:10:24.242Z,81.03
2018-12-18T19:12:57.652Z,80.82
2018-12-18T19:15:26.771Z,80.85
2018-12-18T19:17:56.095Z,81.14
2018-12-18T19:20:25.547Z,81.19
2018-12-18T19:22:54.599Z,81.34
2018-12-18T19:25:24.674Z,81.28
2018-12-18T19:27:54.073Z,81.40
2018-12-18T19:30:23.313Z,81.19
2018-12-18T19:32:52.119Z,81.10
2018-12-18T19:35:21.492Z,81.27
2018-12-18T19:37:50.678Z,81.27
2018-12-18T19:40:19.568Z,81.58
2018-12-18T19:42:48.767Z,81.55
2018-12-18T19:45:17.861Z,81.74
2018-12-18T19:47:47.096Z,81.98
2018-12-18T19:50:16.715Z,81.70
2018-12-18T19:52:45.864Z,81.32
2018-12-18T19:55:15.092Z,81.18
2018-12-18T19:57:44.137Z,81.24
2018-12-18T20:00:13.200Z,81.31
2018-12-18T20:02:42.024Z,81.22
2018-12-18T20:05:11.707Z,81.41
2018-12-18T20:07:40.927Z,81.18
2018-12-18T20:10:10.065Z,80.97
2018-12-18T20:12:39.838Z,81.41
2018-12-18T20:15:08.948Z,81.36
2018-12-18T20:17:38.128Z,81.18
2018-12-18T20:20:08.361Z,81.15
2018-12-18T20:22:37.616Z,81.05
2018-12-18T20:25:06.988Z,81.04
2018-12-18T20:27:36.062Z,81.50
2018-12-18T20:30:05.619Z,81.33
2018-12-18T20:32:34.862Z,81.37
2018-12-18T20:35:04.015Z,81.05
2018-12-18T20:37:33.189Z,81.12
2018-12-18T20:40:02.205Z,81.42
2018-12-18T20:42:31.715Z,81.40
2018-12-18T20:45:00.960Z,81.62
2018-12-18T20:47:30.099Z,81.70
2018-12-18T20:49:59.418Z,81.65
2018-12-18T20:52:28.307Z,81.73
2018-12-18T20:54:57.491Z,81.70
2018-12-18T20:57:26.893Z,81.68
2018-12-18T20:59:56.186Z,81.64
2018-12-18T21:02:25.603Z,81.86
2018-12-18T21:04:54.994Z,81.52
2018-12-18T21:07:24.219Z,81.77
2018-12-18T21:09:53.366Z,81.81
2018-12-18T21:12:22.666Z,82.13
2018-12-18T21:14:51.497Z,82.01
2018-12-18T21:17:20.774Z,81.90
2018-12-18T21:19:50.757Z,81.91
2018-12-18T21:22:20.125Z,81.73
2018-12-18T21:24:49.248Z,81.98
2018-12-18T21:27:18.706Z,81.75
2018-12-18T21:29:47.691Z,81.81
2018-12-18T21:32:16.937Z,81.88
2018-12-18T21:34:46.213Z,81.80
2018-12-18T21:37:15.626Z,82.10
2018-12-18T21:39:44.793Z,81.88
2018-12-18T21:42:14.110Z,81.86
2018-12-18T21:44:43.474Z,81.58
2018-12-18T21:47:12.516Z,81.58
2018-12-18T21:49:41.965Z,81.80
2018-12-18T21:52:11.119Z,81.50
2018-12-18T21:54:40.164Z,81.39
2018-12-18T21:57:09.276Z,81.91
2018-12-18T21:59:38.395Z,82.19
2018-12-18T22:02:07.489Z,81.87
2018-12-18T22:04:36.798Z,81.88
2018-12-18T22:07:05.977Z,82.07
2018-12-18T22:09:35.104Z,81.81
2018-12-18T22:12:04.355Z,82.07
2018-12-18T22:14:33.556Z,82.06
2018-12-18T22:17:02.720Z,82.08
2018-12-18T22:19:32.167Z,81.99
2018-12-18T22:22:01.191Z,81.93
2018-12-18T22:24:30.148Z,81.83
2018-12-18T22:26:59.418Z,81.81
2018-12-18T22:29:28.465Z,81.97
2018-12-18T22:31:57.888Z,81.66
2018-12-18T22:34:27.273Z,81.85
2018-12-18T22:36:56.374Z,81.69
2018-12-18T22:39:25.351Z,81.74
2018-12-18T22:41:54.940Z,81.46
2018-12-18T22:44:24.201Z,82.03
2018-12-18T22:46:53.467Z,81.87
2018-12-18T22:49:22.945Z,81.76
2018-12-18T22:51:51.941Z,81.78
2018-12-18T22:54:21.187Z,82.06
2018-12-18T22:56:50.629Z,82.00
2018-12-18T22:59:19.453Z,81.64
2018-12-18T23:01:48.499Z,81.86
2018-12-18T23:04:17.807Z,81.91
2018-12-18T23:06:46.866Z,81.83
2018-12-18T23:09:16.964Z,81.90
2018-12-18T23:11:46.982Z,81.96
2018-12-18T23:14:16.263Z,81.98
2018-12-18T23:16:45.407Z,81.91
2018-12-18T23:19:14.735Z,81.82
2018-12-18T23:21:43.818Z,81.92
2018-12-18T23:24:12.795Z,82.06
2018-12-18T23:26:42.132Z,82.05
2018-12-18T23:29:11.139Z,82.11
2018-12-18T23:31:40.217Z,82.05
2018-12-18T23:34:09.274Z,82.04
2018-12-18T23:36:38.374Z,82.17
2018-12-18T23:39:08.726Z,81.95
2018-12-18T23:41:38.382Z,82.14
2018-12-18T23:44:07.600Z,82.55
2018-12-18T23:46:36.607Z,82.77
2018-12-18T23:49:05.933Z,82.76
2018-12-18T23:51:35.083Z,82.27
2018-12-18T23:54:04.242Z,82.66
2018-12-18T23:56:33.422Z,82.72
2018-12-18T23:59:03.252Z,82.53
